Time;durP1;ratioP1;P1;durP2;ratioP2;P2;SDS_P1;SDS_P2;PMS_P1;PMS_P2;Temp;Humidity;BMP_temperature;BMP_pressure;BME280_temperature;BME280_humidity;BME280_pressure;Samples;Min_cycle;Max_cycle;Signal;HPM_P1;HPM_P2
2022/12/12 00:00:18;;;;;;;;;;;;;;;;;;1035307;28;19913;-77
2022/12/12 00:00:49;;;;;;;;;;;;;;;;;;1031585;28;19918;-77
2022/12/12 00:01:20;;;;;;;;;;;;;;;;;;1031514;28;19996;-77
2022/12/12 00:01:50;;;;;;;;;;;;;;;;;;1035524;28;19914;-77
2022/12/12 00:02:21;;;;;;;;;;;;;;;;;;1035313;28;19914;-77
2022/12/12 00:02:52;;;;;;;;;;;;;;;;;;1031427;28;20361;-77
2022/12/12 00:03:23;;;;;;;;;;;;;;;;;;1031275;28;20008;-77
2022/12/12 00:03:54;;;;;;;;;;;;;;;;;;1027394;28;20483;-77
2022/12/12 00:04:25;;;;;;;;;;;;;;;;;;1031611;28;19920;-78
2022/12/12 00:04:56;;;;;;;;;;;;;;;;;;1035423;28;19936;-77
2022/12/12 00:05:27;;;;;;;;;;;;;;;;;;1035190;28;19913;-77
2022/12/12 00:05:58;;;;;;;;;;;;;;;;;;1035891;28;20032;-77
2022/12/12 00:06:28;;;;;;;;;;;;;;;;;;1035289;28;20411;-77
2022/12/12 00:06:59;;;;;;;;;;;;;;;;;;1035476;28;19920;-77
2022/12/12 00:07:30;;;;;;;;;;;;;;;;;;1039924;28;19913;-77
2022/12/12 00:08:01;;;;;;;;;;;;;;;;;;1039661;28;20364;-78
2022/12/12 00:08:32;;;;;;;;;;;;;;;;;;1040082;28;19963;-78
2022/12/12 00:09:03;;;;;;;;;;;;;;;;;;1035446;28;19913;-77
2022/12/12 00:09:34;;;;;;;;;;;;;;;;;;1035420;28;19913;-77
2022/12/12 00:10:05;;;;;;;;;;;;;;;;;;1031006;28;19952;-77
2022/12/12 00:10:35;;;;;;;;;;;;;;;;;;1031769;28;19916;-77
2022/12/12 00:11:06;;;;;;;;;;;;;;;;;;1035219;28;20003;-77
2022/12/12 00:11:37;;;;;;;;;;;;;;;;;;1035662;28;19920;-77
2022/12/12 00:12:08;;;;;;;;;;;;;;;;;;1039830;28;19913;-78
2022/12/12 00:12:39;;;;;;;;;;;;;;;;;;1039908;28;19992;-77
2022/12/12 00:13:10;;;;;;;;;;;;;;;;;;1035140;28;19919;-77
2022/12/12 00:13:41;;;;;;;;;;;;;;;;;;1031542;28;19921;-78
2022/12/12 00:14:12;;;;;;;;;;;;;;;;;;1031427;28;20018;-77
2022/12/12 00:14:43;;;;;;;;;;;;;;;;;;1031292;28;20738;-78
2022/12/12 00:15:14;;;;;;;;;;;;;;;;;;1035224;28;20810;-78
2022/12/12 00:15:45;;;;;;;;;;;;;;;;;;1030856;28;19914;-78
2022/12/12 00:16:15;;;;;;;;;;;;;;;;;;1023466;28;19915;-77
2022/12/12 00:16:46;;;;;;;;;;;;;;;;;;1024959;28;19922;-78
2022/12/12 00:17:17;;;;;;;;;;;;;;;;;;1027098;28;20359;-78
2022/12/12 00:17:48;;;;;;;;;;;;;;;;;;1027580;28;20009;-77
2022/12/12 00:18:19;;;;;;;;;;;;;;;;;;1027155;28;20353;-77
2022/12/12 00:18:50;;;;;;;;;;;;;;;;;;1031540;28;20663;-77
2022/12/12 00:19:21;;;;;;;;;;;;;;;;;;1030924;28;19921;-77
2022/12/12 00:19:52;;;;;;;;;;;;;;;;;;1027515;28;20459;-77
2022/12/12 00:20:22;;;;;;;;;;;;;;;;;;1034565;28;19921;-78
2022/12/12 00:20:53;;;;;;;;;;;;;;;;;;1035298;28;20000;-77
2022/12/12 00:21:24;;;;;;;;;;;;;;;;;;1035564;28;20380;-77
2022/12/12 00:21:55;;;;;;;;;;;;;;;;;;1031245;28;19917;-78
2022/12/12 00:22:26;;;;;;;;;;;;;;;;;;1031644;28;20612;-77
2022/12/12 00:22:57;;;;;;;;;;;;;;;;;;1031270;28;19922;-77
2022/12/12 00:23:28;;;;;;;;;;;;;;;;;;1031309;28;20013;-77
2022/12/12 00:23:58;;;;;;;;;;;;;;;;;;1035491;28;19913;-77
2022/12/12 00:24:29;;;;;;;;;;;;;;;;;;1031485;28;19914;-77
2022/12/12 00:25:00;;;;;;;;;;;;;;;;;;1030989;28;19913;-78
2022/12/12 00:25:31;;;;;;;;;;;;;;;;;;1031217;28;19928;-77
2022/12/12 00:26:02;;;;;;;;;;;;;;;;;;1031521;28;19981;-77
2022/12/12 00:26:33;;;;;;;;;;;;;;;;;;1031398;28;20447;-77
2022/12/12 00:27:04;;;;;;;;;;;;;;;;;;1035186;28;20482;-77
2022/12/12 00:27:35;;;;;;;;;;;;;;;;;;1035029;28;20331;-78
2022/12/12 00:28:05;;;;;;;;;;;;;;;;;;1035623;28;19921;-77
2022/12/12 00:28:36;;;;;;;;;;;;;;;;;;1037866;28;20346;-77
2022/12/12 00:29:07;;;;;;;;;;;;;;;;;;1035394;28;19984;-76
2022/12/12 00:29:38;;;;;;;;;;;;;;;;;;1035121;28;19913;-77
2022/12/12 00:30:09;;;;;;;;;;;;;;;;;;1035253;28;20273;-76
2022/12/12 00:30:40;;;;;;;;;;;;;;;;;;1031657;28;20021;-76
2022/12/12 00:31:11;;;;;;;;;;;;;;;;;;1031548;28;19921;-77
2022/12/12 00:31:42;;;;;;;;;;;;;;;;;;1027513;28;19914;-78
2022/12/12 00:32:12;;;;;;;;;;;;;;;;;;1030095;28;20017;-77
2022/12/12 00:32:43;;;;;;;;;;;;;;;;;;1026995;28;20337;-77
2022/12/12 00:33:14;;;;;;;;;;;;;;;;;;1027595;28;19921;-76
2022/12/12 00:33:46;;;;;;;;;;;;;;;;;;1027199;28;20391;-77
2022/12/12 00:34:17;;;;;;;;;;;;;;;;;;1029501;28;19913;-77
2022/12/12 00:34:48;;;;;;;;;;;;;;;;;;1031161;28;19914;-77
2022/12/12 00:35:19;;;;;;;;;;;;;;;;;;1031801;28;20575;-77
2022/12/12 00:35:50;;;;;;;;;;;;;;;;;;1039428;28;19909;-77
2022/12/12 00:36:21;;;;;;;;;;;;;;;;;;1034690;28;19909;-77
2022/12/12 00:36:52;;;;;;;;;;;;;;;;;;1035460;28;20420;-77
2022/12/12 00:37:23;;;;;;;;;;;;;;;;;;1034290;28;19917;-77
2022/12/12 00:37:53;;;;;;;;;;;;;;;;;;1031415;28;20004;-77
2022/12/12 00:38:24;;;;;;;;;;;;;;;;;;1030998;28;19938;-77
2022/12/12 00:38:55;;;;;;;;;;;;;;;;;;1031318;28;19913;-77
2022/12/12 00:39:26;;;;;;;;;;;;;;;;;;1031233;28;19920;-77
2022/12/12 00:39:57;;;;;;;;;;;;;;;;;;1035595;28;19918;-77
2022/12/12 00:40:28;;;;;;;;;;;;;;;;;;1039144;28;19925;-77
2022/12/12 00:40:59;;;;;;;;;;;;;;;;;;1035325;28;20581;-77
2022/12/12 00:41:29;;;;;;;;;;;;;;;;;;1035107;28;19909;-77
2022/12/12 00:42:00;;;;;;;;;;;;;;;;;;1031369;28;20395;-77
2022/12/12 00:42:31;;;;;;;;;;;;;;;;;;1030820;28;20012;-77
2022/12/12 00:43:02;;;;;;;;;;;;;;;;;;1030925;28;20385;-77
2022/12/12 00:43:33;;;;;;;;;;;;;;;;;;1034737;28;20463;-77
2022/12/12 00:44:04;;;;;;;;;;;;;;;;;;1032761;28;19922;-77
2022/12/12 00:44:35;;;;;;;;;;;;;;;;;;1027175;28;19968;-79
2022/12/12 00:45:06;;;;;;;;;;;;;;;;;;1027381;28;19918;-77
2022/12/12 00:45:36;;;;;;;;;;;;;;;;;;1026766;28;19925;-76
2022/12/12 00:46:07;;;;;;;;;;;;;;;;;;1031279;28;19921;-77
2022/12/12 00:46:38;;;;;;;;;;;;;;;;;;1031055;28;19914;-77
2022/12/12 00:47:09;;;;;;;;;;;;;;;;;;1035218;28;19914;-77
2022/12/12 00:47:40;;;;;;;;;;;;;;;;;;1027199;28;19910;-77
2022/12/12 00:48:11;;;;;;;;;;;;;;;;;;1031468;28;19963;-77
2022/12/12 00:48:42;;;;;;;;;;;;;;;;;;1030965;28;19921;-77
2022/12/12 00:49:13;;;;;;;;;;;;;;;;;;1033954;28;19913;-76
2022/12/12 00:49:44;;;;;;;;;;;;;;;;;;1037840;28;19913;-77
2022/12/12 00:50:15;;;;;;;;;;;;;;;;;;1035418;28;19910;-77
2022/12/12 00:50:46;;;;;;;;;;;;;;;;;;1034470;28;20016;-77
2022/12/12 00:51:16;;;;;;;;;;;;;;;;;;1034360;28;19913;-77
2022/12/12 00:51:47;;;;;;;;;;;;;;;;;;1030775;28;19921;-77
2022/12/12 00:52:18;;;;;;;;;;;;;;;;;;1031489;28;20017;-77
2022/12/12 00:52:49;;;;;;;;;;;;;;;;;;1035082;28;19914;-77
2022/12/12 00:53:20;;;;;;;;;;;;;;;;;;1031493;28;19917;-77
2022/12/12 00:53:51;;;;;;;;;;;;;;;;;;1035321;28;19913;-77
2022/12/12 00:54:22;;;;;;;;;;;;;;;;;;1035229;28;19921;-77
2022/12/12 00:54:53;;;;;;;;;;;;;;;;;;1034698;28;19913;-77
2022/12/12 00:55:24;;;;;;;;;;;;;;;;;;1035213;28;19913;-76
2022/12/12 00:55:55;;;;;;;;;;;;;;;;;;1034977;28;19963;-77
2022/12/12 00:56:26;;;;;;;;;;;;;;;;;;1037281;28;19968;-77
2022/12/12 00:56:56;;;;;;;;;;;;;;;;;;1035428;28;19936;-77
2022/12/12 00:57:27;;;;;;;;;;;;;;;;;;1035144;28;19913;-77
2022/12/12 00:57:59;;;;;;;;;;;;;;;;;;1035034;28;19947;-78
2022/12/12 00:58:29;;;;;;;;;;;;;;;;;;1035118;28;20276;-76
2022/12/12 00:59:01;;;;;;;;;;;;;;;;;;1031258;28;20619;-77
2022/12/12 00:59:32;;;;;;;;;;;;;;;;;;1031041;28;19921;-76
2022/12/12 01:00:02;;;;;;;;;;;;;;;;;;1031365;28;19914;-77
2022/12/12 01:00:34;;;;;;;;;;;;;;;;;;1031580;28;20025;-77
2022/12/12 01:01:05;;;;;;;;;;;;;;;;;;1031211;28;20594;-77
2022/12/12 01:01:36;;;;;;;;;;;;;;;;;;1030796;28;20444;-77
2022/12/12 01:02:07;;;;;;;;;;;;;;;;;;1031190;28;20313;-77
2022/12/12 01:02:37;;;;;;;;;;;;;;;;;;1031125;28;19914;-77
2022/12/12 01:03:08;;;;;;;;;;;;;;;;;;1031353;28;19980;-77
2022/12/12 01:03:39;;;;;;;;;;;;;;;;;;1031117;28;19920;-77
2022/12/12 01:04:10;;;;;;;;;;;;;;;;;;1031340;28;20377;-76
2022/12/12 01:04:41;;;;;;;;;;;;;;;;;;1030837;28;19936;-77
2022/12/12 01:05:12;;;;;;;;;;;;;;;;;;1035547;28;20011;-76
2022/12/12 01:05:43;;;;;;;;;;;;;;;;;;1031053;28;19914;-77
2022/12/12 01:06:14;;;;;;;;;;;;;;;;;;1035442;28;20007;-76
2022/12/12 01:06:45;;;;;;;;;;;;;;;;;;1030514;28;20041;-77
2022/12/12 01:07:16;;;;;;;;;;;;;;;;;;1031668;28;19921;-77
2022/12/12 01:07:47;;;;;;;;;;;;;;;;;;1030726;28;19913;-76
2022/12/12 01:08:17;;;;;;;;;;;;;;;;;;1030961;28;20021;-77
2022/12/12 01:08:49;;;;;;;;;;;;;;;;;;1026696;28;19918;-77
2022/12/12 01:09:19;;;;;;;;;;;;;;;;;;1027486;28;19969;-77
2022/12/12 01:09:50;;;;;;;;;;;;;;;;;;1031590;28;19996;-76
2022/12/12 01:10:21;;;;;;;;;;;;;;;;;;1035341;28;19913;-76
2022/12/12 01:10:52;;;;;;;;;;;;;;;;;;1031118;28;19945;-76
2022/12/12 01:11:23;;;;;;;;;;;;;;;;;;1031066;28;20004;-77
2022/12/12 01:11:54;;;;;;;;;;;;;;;;;;1030841;28;19914;-76
2022/12/12 01:12:25;;;;;;;;;;;;;;;;;;1031520;28;19921;-76
2022/12/12 01:12:56;;;;;;;;;;;;;;;;;;1031105;28;20368;-76
2022/12/12 01:13:26;;;;;;;;;;;;;;;;;;1030938;28;19993;-76
2022/12/12 01:13:57;;;;;;;;;;;;;;;;;;1030898;28;19910;-76
2022/12/12 01:14:28;;;;;;;;;;;;;;;;;;1031056;28;20064;-78
2022/12/12 01:14:59;;;;;;;;;;;;;;;;;;1035016;28;19917;-77
2022/12/12 01:15:30;;;;;;;;;;;;;;;;;;1034854;28;19917;-77
2022/12/12 01:16:01;;;;;;;;;;;;;;;;;;1031304;28;19949;-77
2022/12/12 01:16:32;;;;;;;;;;;;;;;;;;1034848;28;20007;-77
2022/12/12 01:17:03;;;;;;;;;;;;;;;;;;1034580;28;20483;-77
2022/12/12 01:17:36;;;;;;;;;;;;;;;;;;1030763;28;20012;-77
2022/12/12 01:18:07;;;;;;;;;;;;;;;;;;1031418;28;20051;-77
2022/12/12 01:18:38;;;;;;;;;;;;;;;;;;1034801;28;19917;-77
2022/12/12 01:19:09;;;;;;;;;;;;;;;;;;1031692;28;20409;-77
2022/12/12 01:19:40;;;;;;;;;;;;;;;;;;1034741;28;19913;-77
2022/12/12 01:20:10;;;;;;;;;;;;;;;;;;1034938;28;20536;-77
2022/12/12 01:20:41;;;;;;;;;;;;;;;;;;1034504;28;19909;-77
2022/12/12 01:21:12;;;;;;;;;;;;;;;;;;1027288;28;19917;-76
2022/12/12 01:21:43;;;;;;;;;;;;;;;;;;1027354;28;20016;-77
2022/12/12 01:22:14;;;;;;;;;;;;;;;;;;1030875;28;20000;-77
2022/12/12 01:22:45;;;;;;;;;;;;;;;;;;1031115;28;19971;-76
2022/12/12 01:23:16;;;;;;;;;;;;;;;;;;1035217;28;19909;-77
2022/12/12 01:23:47;;;;;;;;;;;;;;;;;;1034864;28;19906;-76
2022/12/12 01:24:18;;;;;;;;;;;;;;;;;;1035016;28;19916;-77
2022/12/12 01:24:49;;;;;;;;;;;;;;;;;;1030796;28;19969;-76
2022/12/12 01:25:20;;;;;;;;;;;;;;;;;;1030843;28;19910;-76
2022/12/12 01:25:50;;;;;;;;;;;;;;;;;;1030622;28;19917;-77
2022/12/12 01:26:21;;;;;;;;;;;;;;;;;;1027206;28;19941;-76
2022/12/12 01:26:52;;;;;;;;;;;;;;;;;;1031422;28;19910;-76
2022/12/12 01:27:23;;;;;;;;;;;;;;;;;;1034844;28;20004;-77
2022/12/12 01:27:54;;;;;;;;;;;;;;;;;;1034980;28;19916;-76
2022/12/12 01:28:25;;;;;;;;;;;;;;;;;;1034693;28;19913;-77
2022/12/12 01:28:56;;;;;;;;;;;;;;;;;;1034570;28;19910;-76
2022/12/12 01:29:27;;;;;;;;;;;;;;;;;;1030807;28;19913;-77
2022/12/12 01:30:00;;;;;;;;;;;;;;;;;;1034777;28;20240;-77
2022/12/12 01:30:31;;;;;;;;;;;;;;;;;;1034379;28;19917;-77
2022/12/12 01:31:02;;;;;;;;;;;;;;;;;;1034589;28;19928;-77
2022/12/12 01:31:33;;;;;;;;;;;;;;;;;;1035210;28;20368;-76
2022/12/12 01:32:04;;;;;;;;;;;;;;;;;;1034666;28;20427;-76
2022/12/12 01:32:35;;;;;;;;;;;;;;;;;;1035478;28;19916;-76
2022/12/12 01:33:06;;;;;;;;;;;;;;;;;;1030769;28;20290;-76
2022/12/12 01:33:36;;;;;;;;;;;;;;;;;;1031024;28;19916;-77
2022/12/12 01:34:07;;;;;;;;;;;;;;;;;;1030454;28;20210;-76
2022/12/12 01:34:38;;;;;;;;;;;;;;;;;;1026867;28;20001;-77
2022/12/12 01:35:09;;;;;;;;;;;;;;;;;;1030761;28;19992;-77
2022/12/12 01:35:40;;;;;;;;;;;;;;;;;;1030939;28;19917;-77
2022/12/12 01:36:15;;;;;;;;;;;;;;;;;;1034713;28;20004;-76
2022/12/12 01:36:46;;;;;;;;;;;;;;;;;;1034874;28;19985;-77
2022/12/12 01:37:17;;;;;;;;;;;;;;;;;;1030443;28;20021;-77
2022/12/12 01:37:48;;;;;;;;;;;;;;;;;;1030826;28;19909;-77
2022/12/12 01:38:19;;;;;;;;;;;;;;;;;;1030946;28;20388;-76
2022/12/12 01:38:50;;;;;;;;;;;;;;;;;;1033571;28;20607;-77
2022/12/12 01:39:20;;;;;;;;;;;;;;;;;;1030976;28;20044;-76
2022/12/12 01:39:51;;;;;;;;;;;;;;;;;;1030754;28;19976;-77
2022/12/12 01:40:22;;;;;;;;;;;;;;;;;;1030616;28;20013;-77
2022/12/12 01:40:53;;;;;;;;;;;;;;;;;;1035019;28;19910;-77
2022/12/12 01:41:24;;;;;;;;;;;;;;;;;;1030517;28;19996;-77
2022/12/12 01:41:55;;;;;;;;;;;;;;;;;;1027027;28;19914;-77
2022/12/12 01:42:26;;;;;;;;;;;;;;;;;;1029787;28;19920;-77
2022/12/12 01:42:57;;;;;;;;;;;;;;;;;;1030851;28;19914;-77
2022/12/12 01:43:27;;;;;;;;;;;;;;;;;;1033663;28;20411;-76
2022/12/12 01:43:58;;;;;;;;;;;;;;;;;;1032506;28;20045;-78
2022/12/12 01:44:29;;;;;;;;;;;;;;;;;;1030638;28;20270;-78
2022/12/12 01:45:00;;;;;;;;;;;;;;;;;;1030739;28;19944;-77
2022/12/12 01:45:31;;;;;;;;;;;;;;;;;;1030798;28;20389;-77
2022/12/12 01:46:02;;;;;;;;;;;;;;;;;;1030692;28;19924;-76
2022/12/12 01:46:33;;;;;;;;;;;;;;;;;;1034783;28;19921;-77
2022/12/12 01:47:04;;;;;;;;;;;;;;;;;;1030872;28;19914;-76
2022/12/12 01:47:35;;;;;;;;;;;;;;;;;;1030564;28;19914;-78
2022/12/12 01:48:05;;;;;;;;;;;;;;;;;;1034988;28;19984;-77
2022/12/12 01:48:36;;;;;;;;;;;;;;;;;;1030910;28;19967;-76
2022/12/12 01:49:07;;;;;;;;;;;;;;;;;;1030743;28;19913;-76
2022/12/12 01:49:38;;;;;;;;;;;;;;;;;;1030872;28;19913;-76
2022/12/12 01:50:09;;;;;;;;;;;;;;;;;;1031319;28;19953;-76
2022/12/12 01:50:40;;;;;;;;;;;;;;;;;;1034824;28;19913;-78
2022/12/12 01:51:11;;;;;;;;;;;;;;;;;;1038656;28;19953;-78
2022/12/12 01:51:41;;;;;;;;;;;;;;;;;;1034913;28;19913;-78
2022/12/12 01:52:12;;;;;;;;;;;;;;;;;;1039595;28;19959;-78
2022/12/12 01:52:43;;;;;;;;;;;;;;;;;;1030882;28;19957;-78
2022/12/12 01:53:14;;;;;;;;;;;;;;;;;;1035239;28;19922;-79
2022/12/12 01:53:45;;;;;;;;;;;;;;;;;;1034828;28;19920;-76
2022/12/12 01:54:16;;;;;;;;;;;;;;;;;;1037514;28;19960;-76
2022/12/12 01:54:47;;;;;;;;;;;;;;;;;;1038750;28;19917;-77
2022/12/12 01:55:17;;;;;;;;;;;;;;;;;;1035053;28;20245;-76
2022/12/12 01:55:48;;;;;;;;;;;;;;;;;;1034919;28;20038;-76
2022/12/12 01:56:19;;;;;;;;;;;;;;;;;;1036303;28;19914;-76
2022/12/12 01:56:50;;;;;;;;;;;;;;;;;;1038852;28;19971;-77
2022/12/12 01:57:21;;;;;;;;;;;;;;;;;;1035153;28;20357;-76
2022/12/12 01:57:52;;;;;;;;;;;;;;;;;;1031080;28;20656;-78
2022/12/12 01:58:23;;;;;;;;;;;;;;;;;;1034482;28;21519;-78
2022/12/12 01:58:54;;;;;;;;;;;;;;;;;;1030843;28;20656;-78
2022/12/12 01:59:25;;;;;;;;;;;;;;;;;;1031056;28;19920;-78
2022/12/12 01:59:56;;;;;;;;;;;;;;;;;;1035160;28;20372;-79
2022/12/12 02:00:27;;;;;;;;;;;;;;;;;;1031078;28;19914;-77
2022/12/12 02:00:57;;;;;;;;;;;;;;;;;;1030957;28;19990;-77
2022/12/12 02:01:28;;;;;;;;;;;;;;;;;;1032817;28;19914;-77
2022/12/12 02:01:59;;;;;;;;;;;;;;;;;;1030932;28;20206;-77
2022/12/12 02:02:30;;;;;;;;;;;;;;;;;;1031279;28;20042;-77
2022/12/12 02:03:01;;;;;;;;;;;;;;;;;;1035162;28;19921;-77
2022/12/12 02:03:32;;;;;;;;;;;;;;;;;;1030994;28;20008;-76
2022/12/12 02:04:03;;;;;;;;;;;;;;;;;;1031011;28;20032;-77
2022/12/12 02:04:34;;;;;;;;;;;;;;;;;;1030814;28;20284;-77
2022/12/12 02:05:04;;;;;;;;;;;;;;;;;;1031169;28;19920;-78
2022/12/12 02:05:35;;;;;;;;;;;;;;;;;;1030969;28;19914;-78
2022/12/12 02:06:06;;;;;;;;;;;;;;;;;;1031103;28;19918;-77
2022/12/12 02:06:37;;;;;;;;;;;;;;;;;;1030073;28;19914;-78
2022/12/12 02:07:08;;;;;;;;;;;;;;;;;;1031560;28;19941;-77
2022/12/12 02:07:39;;;;;;;;;;;;;;;;;;1034883;28;19914;-78
2022/12/12 02:08:10;;;;;;;;;;;;;;;;;;1035360;28;19941;-78
2022/12/12 02:08:42;;;;;;;;;;;;;;;;;;1030530;28;19936;-78
2022/12/12 02:09:12;;;;;;;;;;;;;;;;;;1031222;28;19936;-77
2022/12/12 02:09:43;;;;;;;;;;;;;;;;;;1030690;28;19981;-78
2022/12/12 02:10:14;;;;;;;;;;;;;;;;;;1039308;28;19913;-78
2022/12/12 02:10:45;;;;;;;;;;;;;;;;;;1034802;28;19949;-78
2022/12/12 02:11:16;;;;;;;;;;;;;;;;;;1039193;28;20261;-78
2022/12/12 02:11:47;;;;;;;;;;;;;;;;;;1038543;28;19924;-78
2022/12/12 02:12:18;;;;;;;;;;;;;;;;;;1039231;28;19917;-78
2022/12/12 02:12:49;;;;;;;;;;;;;;;;;;1038945;28;20007;-78
2022/12/12 02:13:19;;;;;;;;;;;;;;;;;;1039107;28;19913;-78
2022/12/12 02:13:50;;;;;;;;;;;;;;;;;;1038941;28;19913;-77
2022/12/12 02:14:21;;;;;;;;;;;;;;;;;;1039450;28;19914;-78
2022/12/12 02:14:52;;;;;;;;;;;;;;;;;;1039137;28;20662;-77
2022/12/12 02:15:23;;;;;;;;;;;;;;;;;;1035093;28;19914;-77
2022/12/12 02:15:54;;;;;;;;;;;;;;;;;;1034976;28;20000;-78
2022/12/12 02:16:25;;;;;;;;;;;;;;;;;;1038881;28;20403;-78
2022/12/12 02:16:56;;;;;;;;;;;;;;;;;;1039030;28;20315;-78
2022/12/12 02:17:27;;;;;;;;;;;;;;;;;;1038506;28;19937;-78
2022/12/12 02:17:57;;;;;;;;;;;;;;;;;;1034927;28;20330;-78
2022/12/12 02:18:28;;;;;;;;;;;;;;;;;;1032877;28;19916;-78
2022/12/12 02:18:59;;;;;;;;;;;;;;;;;;1030539;28;19910;-78
2022/12/12 02:19:30;;;;;;;;;;;;;;;;;;1031177;28;20285;-77
2022/12/12 02:20:01;;;;;;;;;;;;;;;;;;1030835;28;20005;-78
2022/12/12 02:20:32;;;;;;;;;;;;;;;;;;1027735;28;19914;-78
2022/12/12 02:21:03;;;;;;;;;;;;;;;;;;1034893;28;19928;-78
2022/12/12 02:21:34;;;;;;;;;;;;;;;;;;1035736;28;20408;-77
2022/12/12 02:22:05;;;;;;;;;;;;;;;;;;1032286;28;20028;-78
2022/12/12 02:22:35;;;;;;;;;;;;;;;;;;1031761;28;19909;-77
2022/12/12 02:23:07;;;;;;;;;;;;;;;;;;1031948;28;19925;-78
2022/12/12 02:23:38;;;;;;;;;;;;;;;;;;1031502;28;19910;-79
2022/12/12 02:24:09;;;;;;;;;;;;;;;;;;1035912;28;19905;-78
2022/12/12 02:24:40;;;;;;;;;;;;;;;;;;1035660;28;19909;-77
2022/12/12 02:25:11;;;;;;;;;;;;;;;;;;1035852;28;20000;-77
2022/12/12 02:25:42;;;;;;;;;;;;;;;;;;1035437;28;19910;-78
2022/12/12 02:26:13;;;;;;;;;;;;;;;;;;1036586;28;19952;-77
2022/12/12 02:26:44;;;;;;;;;;;;;;;;;;1035358;28;20043;-77
2022/12/12 02:27:14;;;;;;;;;;;;;;;;;;1035740;28;19909;-78
2022/12/12 02:27:45;;;;;;;;;;;;;;;;;;1035320;28;19949;-77
2022/12/12 02:28:16;;;;;;;;;;;;;;;;;;1035932;28;19917;-78
2022/12/12 02:28:47;;;;;;;;;;;;;;;;;;1031512;28;19913;-77
2022/12/12 02:29:18;;;;;;;;;;;;;;;;;;1031858;28;19956;-78
2022/12/12 02:29:49;;;;;;;;;;;;;;;;;;1031486;28;19910;-77
2022/12/12 02:30:21;;;;;;;;;;;;;;;;;;1031870;28;19910;-77
2022/12/12 02:30:51;;;;;;;;;;;;;;;;;;1031611;28;19910;-77
2022/12/12 02:31:22;;;;;;;;;;;;;;;;;;1035670;28;19909;-77
2022/12/12 02:31:53;;;;;;;;;;;;;;;;;;1031434;28;19917;-77
2022/12/12 02:32:24;;;;;;;;;;;;;;;;;;1035653;28;20634;-77
2022/12/12 02:32:55;;;;;;;;;;;;;;;;;;1035284;28;19909;-77
2022/12/12 02:33:26;;;;;;;;;;;;;;;;;;1040050;28;19906;-77
2022/12/12 02:33:57;;;;;;;;;;;;;;;;;;1039632;28;19956;-77
2022/12/12 02:34:28;;;;;;;;;;;;;;;;;;1040033;28;19920;-78
2022/12/12 02:34:59;;;;;;;;;;;;;;;;;;1039618;28;20626;-78
2022/12/12 02:35:30;;;;;;;;;;;;;;;;;;1035754;28;20004;-78
2022/12/12 02:36:00;;;;;;;;;;;;;;;;;;1035455;28;20296;-77
2022/12/12 02:36:31;;;;;;;;;;;;;;;;;;1035338;28;19914;-78
2022/12/12 02:37:02;;;;;;;;;;;;;;;;;;1034940;28;19905;-77
2022/12/12 02:37:33;;;;;;;;;;;;;;;;;;1035885;28;19910;-78
2022/12/12 02:38:04;;;;;;;;;;;;;;;;;;1035538;28;20404;-77
2022/12/12 02:38:35;;;;;;;;;;;;;;;;;;1035224;28;19943;-78
2022/12/12 02:39:06;;;;;;;;;;;;;;;;;;1035449;28;19957;-77
2022/12/12 02:39:37;;;;;;;;;;;;;;;;;;1031570;28;20042;-78
2022/12/12 02:40:07;;;;;;;;;;;;;;;;;;1031905;28;19914;-77
2022/12/12 02:40:38;;;;;;;;;;;;;;;;;;1031511;28;20056;-78
2022/12/12 02:41:09;;;;;;;;;;;;;;;;;;1031880;28;19925;-77
2022/12/12 02:41:40;;;;;;;;;;;;;;;;;;1031626;28;20004;-77
2022/12/12 02:42:11;;;;;;;;;;;;;;;;;;1030785;28;20262;-77
2022/12/12 02:42:42;;;;;;;;;;;;;;;;;;1031543;28;19932;-78
2022/12/12 02:43:13;;;;;;;;;;;;;;;;;;1032746;28;20351;-77
2022/12/12 02:43:43;;;;;;;;;;;;;;;;;;1039908;28;19913;-77
2022/12/12 02:44:15;;;;;;;;;;;;;;;;;;1035656;28;19913;-78
2022/12/12 02:44:46;;;;;;;;;;;;;;;;;;1035718;28;19952;-77
2022/12/12 02:45:16;;;;;;;;;;;;;;;;;;1031600;28;19924;-77
2022/12/12 02:45:48;;;;;;;;;;;;;;;;;;1031687;28;19918;-78
2022/12/12 02:46:18;;;;;;;;;;;;;;;;;;1031575;28;19914;-78
2022/12/12 02:46:49;;;;;;;;;;;;;;;;;;1031905;28;19913;-77
2022/12/12 02:47:20;;;;;;;;;;;;;;;;;;1033832;28;19936;-77
2022/12/12 02:47:51;;;;;;;;;;;;;;;;;;1035623;28;19944;-77
2022/12/12 02:48:22;;;;;;;;;;;;;;;;;;1031638;28;19914;-78
2022/12/12 02:48:53;;;;;;;;;;;;;;;;;;1027483;28;20146;-78
2022/12/12 02:49:24;;;;;;;;;;;;;;;;;;1031658;28;19914;-78
2022/12/12 02:49:55;;;;;;;;;;;;;;;;;;1031519;28;19924;-77
2022/12/12 02:50:25;;;;;;;;;;;;;;;;;;1027770;28;19917;-77
2022/12/12 02:50:56;;;;;;;;;;;;;;;;;;1033885;28;19913;-79
2022/12/12 02:51:27;;;;;;;;;;;;;;;;;;1035680;28;19920;-78
2022/12/12 02:51:58;;;;;;;;;;;;;;;;;;1031489;28;19922;-77
2022/12/12 02:52:29;;;;;;;;;;;;;;;;;;1031779;28;20285;-77
2022/12/12 02:53:00;;;;;;;;;;;;;;;;;;1027386;28;19925;-77
2022/12/12 02:53:31;;;;;;;;;;;;;;;;;;1027591;28;20067;-77
2022/12/12 02:54:02;;;;;;;;;;;;;;;;;;1027994;28;19914;-78
2022/12/12 02:54:33;;;;;;;;;;;;;;;;;;1031888;28;20409;-77
2022/12/12 02:55:04;;;;;;;;;;;;;;;;;;1035272;28;19921;-77
2022/12/12 02:55:35;;;;;;;;;;;;;;;;;;1035962;28;19920;-77
2022/12/12 02:56:06;;;;;;;;;;;;;;;;;;1031460;28;19921;-77
2022/12/12 02:56:37;;;;;;;;;;;;;;;;;;1035347;28;19945;-77
2022/12/12 02:57:08;;;;;;;;;;;;;;;;;;1031559;28;19941;-77
2022/12/12 02:57:40;;;;;;;;;;;;;;;;;;1031669;28;19921;-78
2022/12/12 02:58:11;;;;;;;;;;;;;;;;;;1035507;28;19917;-77
2022/12/12 02:58:42;;;;;;;;;;;;;;;;;;1036232;28;20068;-77
2022/12/12 02:59:13;;;;;;;;;;;;;;;;;;1039709;28;20003;-78
2022/12/12 02:59:44;;;;;;;;;;;;;;;;;;1039960;28;19913;-77
2022/12/12 03:00:16;;;;;;;;;;;;;;;;;;1035585;28;20003;-77
2022/12/12 03:00:46;;;;;;;;;;;;;;;;;;1031729;28;19910;-78
2022/12/12 03:01:17;;;;;;;;;;;;;;;;;;1031387;28;19997;-78
2022/12/12 03:01:48;;;;;;;;;;;;;;;;;;1031836;28;20683;-78
2022/12/12 03:02:19;;;;;;;;;;;;;;;;;;1035911;28;20021;-78
2022/12/12 03:02:50;;;;;;;;;;;;;;;;;;1035590;28;20514;-77
2022/12/12 03:07:47;;;;;;;;;;;;;;;;;;1040338;28;19932;-77
2022/12/12 03:08:18;;;;;;;;;;;;;;;;;;1040058;28;19921;-78
2022/12/12 03:08:49;;;;;;;;;;;;;;;;;;1035315;28;19913;-78
2022/12/12 03:09:20;;;;;;;;;;;;;;;;;;1035644;28;20422;-77
2022/12/12 03:09:50;;;;;;;;;;;;;;;;;;1031218;28;19950;-78
2022/12/12 03:10:22;;;;;;;;;;;;;;;;;;1028105;28;19914;-78
2022/12/12 03:10:53;;;;;;;;;;;;;;;;;;1026796;28;20294;-77
2022/12/12 03:11:23;;;;;;;;;;;;;;;;;;1023858;28;20458;-77
2022/12/12 03:11:54;;;;;;;;;;;;;;;;;;1029239;28;19980;-77
2022/12/12 03:12:25;;;;;;;;;;;;;;;;;;1035851;28;19947;-78
2022/12/12 03:12:59;;;;;;;;;;;;;;;;;;1035319;28;19914;-77
2022/12/12 03:13:30;;;;;;;;;;;;;;;;;;1035863;28;20015;-78
2022/12/12 03:14:01;;;;;;;;;;;;;;;;;;1032322;28;20347;-78
2022/12/12 03:14:32;;;;;;;;;;;;;;;;;;1032198;28;19914;-78
2022/12/12 03:15:03;;;;;;;;;;;;;;;;;;1035241;28;19983;-78
2022/12/12 03:15:34;;;;;;;;;;;;;;;;;;1036215;28;20003;-78
2022/12/12 03:16:05;;;;;;;;;;;;;;;;;;1034954;28;19929;-78
2022/12/12 03:16:37;;;;;;;;;;;;;;;;;;1031499;28;19914;-78
2022/12/12 03:17:08;;;;;;;;;;;;;;;;;;1035404;28;19913;-78
2022/12/12 03:17:39;;;;;;;;;;;;;;;;;;1035931;28;19924;-78
2022/12/12 03:18:09;;;;;;;;;;;;;;;;;;1039723;28;20008;-78
2022/12/12 03:18:40;;;;;;;;;;;;;;;;;;1039587;28;19979;-78
2022/12/12 03:19:11;;;;;;;;;;;;;;;;;;1039335;28;20372;-78
2022/12/12 03:19:42;;;;;;;;;;;;;;;;;;1035439;28;19913;-78
2022/12/12 03:20:13;;;;;;;;;;;;;;;;;;1035488;28;20593;-77
2022/12/12 03:20:44;;;;;;;;;;;;;;;;;;1031523;28;19925;-78
2022/12/12 03:21:15;;;;;;;;;;;;;;;;;;1031575;28;19945;-78
2022/12/12 03:21:46;;;;;;;;;;;;;;;;;;1035384;28;19921;-78
2022/12/12 03:22:17;;;;;;;;;;;;;;;;;;1031636;28;20013;-78
2022/12/12 03:22:48;;;;;;;;;;;;;;;;;;1031509;28;19921;-78
2022/12/12 03:23:18;;;;;;;;;;;;;;;;;;1031502;28;20353;-78
2022/12/12 03:23:49;;;;;;;;;;;;;;;;;;1031910;28;19910;-77
2022/12/12 03:24:20;;;;;;;;;;;;;;;;;;1035760;28;19910;-78
2022/12/12 03:24:51;;;;;;;;;;;;;;;;;;1039596;28;20395;-78
2022/12/12 03:25:22;;;;;;;;;;;;;;;;;;1039547;28;19924;-78
2022/12/12 03:25:53;;;;;;;;;;;;;;;;;;1035664;28;19970;-78
2022/12/12 03:26:24;;;;;;;;;;;;;;;;;;1031356;28;19921;-77
2022/12/12 03:26:55;;;;;;;;;;;;;;;;;;1031445;28;19945;-77
2022/12/12 03:27:25;;;;;;;;;;;;;;;;;;1031676;28;19937;-78
2022/12/12 03:27:56;;;;;;;;;;;;;;;;;;1035742;28;19914;-78
2022/12/12 03:28:27;;;;;;;;;;;;;;;;;;1035486;28;20383;-78
2022/12/12 03:28:58;;;;;;;;;;;;;;;;;;1030922;28;19964;-75
2022/12/12 03:29:29;;;;;;;;;;;;;;;;;;1031378;28;20301;-78
2022/12/12 03:30:00;;;;;;;;;;;;;;;;;;1031532;28;20048;-78
2022/12/12 03:30:34;;;;;;;;;;;;;;;;;;1033698;28;20020;-77
2022/12/12 03:31:05;;;;;;;;;;;;;;;;;;1035478;28;19996;-77
2022/12/12 03:31:36;;;;;;;;;;;;;;;;;;1035426;28;19914;-78
2022/12/12 03:32:07;;;;;;;;;;;;;;;;;;1035522;28;19909;-77
2022/12/12 03:32:37;;;;;;;;;;;;;;;;;;1035547;28;20036;-77
2022/12/12 03:33:08;;;;;;;;;;;;;;;;;;1039301;28;19913;-77
2022/12/12 03:33:39;;;;;;;;;;;;;;;;;;1034914;28;19921;-78
2022/12/12 03:34:10;;;;;;;;;;;;;;;;;;1035653;28;20001;-78
2022/12/12 03:34:41;;;;;;;;;;;;;;;;;;1035492;28;20044;-77
2022/12/12 03:35:12;;;;;;;;;;;;;;;;;;1035742;28;20364;-78
2022/12/12 03:35:43;;;;;;;;;;;;;;;;;;1038519;28;19920;-77